createdAt,value
2022-11-20T00:02:33.565Z,36.70
2022-11-20T00:24:19.455Z,34.10
2022-11-20T00:46:07.961Z,36.10
2022-11-20T01:07:53.757Z,33.10
2022-11-20T01:29:39.472Z,33.60
2022-11-20T01:51:31.039Z,35.90
2022-11-20T02:13:35.010Z,30.30
2022-11-20T02:35:43.712Z,27.20
2022-11-20T02:57:29.709Z,28.40
2022-11-20T03:41:04.829Z,26.90
2022-11-20T04:02:51.374Z,25.90
2022-11-20T04:24:37.213Z,27.60
2022-11-20T04:46:26.368Z,26.50
2022-11-20T05:08:12.345Z,27.60
2022-11-20T05:51:43.174Z,30.50
2022-11-20T06:13:28.933Z,34.10
2022-11-20T06:35:18.024Z,35.00
2022-11-20T06:57:03.776Z,35.40
2022-11-20T07:18:51.225Z,37.60
2022-11-20T07:40:37.172Z,41.20
2022-11-20T08:02:22.945Z,40.30
2022-11-20T08:24:10.443Z,34.10
2022-11-20T08:45:58.539Z,31.30
2022-11-20T09:07:44.525Z,29.00
2022-11-20T09:51:26.163Z,19.80
2022-11-20T10:13:25.594Z,20.10
2022-11-20T10:35:24.095Z,20.50
2022-11-20T10:57:20.132Z,18.50
2022-11-20T11:19:15.795Z,17.50
2022-11-20T12:02:59.371Z,17.70
2022-11-20T12:24:57.528Z,16.90
2022-11-20T12:46:48.503Z,16.70
2022-11-20T13:08:38.367Z,17.30
2022-11-20T13:30:27.986Z,15.70
2022-11-20T13:52:41.852Z,14.50
2022-11-20T14:14:29.084Z,16.30
2022-11-20T14:41:33.767Z,16.10
2022-11-20T15:03:20.090Z,17.30
2022-11-20T15:25:13.572Z,17.60
2022-11-20T15:46:59.429Z,19.10
2022-11-20T16:08:45.920Z,21.60
2022-11-20T16:30:33.329Z,24.70
2022-11-20T16:52:19.180Z,31.10
2022-11-20T17:14:07.507Z,35.40
2022-11-20T17:35:56.690Z,28.10
2022-11-20T17:57:56.869Z,30.60
2022-11-20T18:20:00.960Z,35.30
2022-11-20T18:42:09.161Z,30.60
2022-11-20T19:03:55.071Z,32.90
2022-11-20T19:25:40.885Z,30.70
2022-11-20T19:47:46.051Z,34.40
2022-11-20T20:31:22.622Z,41.80
2022-11-20T20:53:08.805Z,42.90
2022-11-20T21:36:39.236Z,40.00
2022-11-20T21:58:25.114Z,42.30
2022-11-20T22:20:13.345Z,40.00
2022-11-20T22:41:59.119Z,44.20
2022-11-20T23:03:47.394Z,48.00
2022-11-20T23:25:33.321Z,48.20
2022-11-20T23:47:19.100Z,51.90
